Bei Facebook empfehlenBei Twitter postenGoogle plusPinterest

Das Wetter im Erzgebirge am 23.03.2016

Wetter und Klima am 23.03.2016 Holzhau im Erzgebirge (630m ü.NN)
Letzte gemessene Temperatur und Uhrzeit der Messung23:45:00 Uhr1.30 °C
Temperatur (Maximum / Höchstwert) und Uhrzeit der Messung12:00:00 Uhr6.50 °C
Temperatur (Minimum / Tiefstwert) und Uhrzeit der Messung04:00:000.70 °C
Errechneter Absolutwert der Temperaturschwankungen zwischen Tmin und Tmax des Tages5.80 K
Errechnete Tagesmitteltemperatur2.56042 °C
Gesamt - Niederschlag des Tages (in flüssiger Form)2.07 Liter / m²
Luftdruck (Maximum / Höchstwert) und Zeitpunkt der Messung00:15:00 Uhr1005.10 hPa
Luftdruck (Minimum / Tiefstwert) und Zeitpunkt der Messung17:00:00 Uhr1002.20 hPa
Errechneter Absolutwert der Luftdruckschwankungen des Tages2.90 hPa
Höchste gemessene Windgeschwindigkeit und Uhrzeit der Messung16:45:00 Uhr10.08 km/h
Errechnete Windhäufigkeit in Relation zu den Messwerten des Tages8.33333 %
Niedrigste Windkühle (Windchill) und Zeitpunkt der Messung18:30:00 Uhr-1.30 °C
Taupunkt (Maximum / Höchstwert) und Uhrzeit der Messung12:00:00 Uhr5.00 °C
Taupunkt (Minimum / Tiefstwert) und Uhrzeit der Messung17:45:00-0.20 °C
Anzahl der automatisch eingelesenen Messwerte 96

Detaillierte Wetter- und Klima- Messwerte für den 23.03.2016 in Holzhau im Erzgebirge (630m ü.NN)
ZeitTemperaturLuftdruckRel. LuftfeuchteWindWindrichtungWindchillTaupunktNiederschlag l/m²
23:45:001.30 °C1004.40 hPa93.00 %0.30 °C2.07
23:30:001.30 °C1004.30 hPa93.00 %0.30 °C2.07
23:15:001.30 °C1004.40 hPa93.00 %0.30 °C2.07
23:00:001.30 °C1004.40 hPa93.00 %0.30 °C2.07
22:45:001.30 °C1004.40 hPa93.00 %0.30 °C2.07
22:30:001.20 °C1004.20 hPa93.00 %0.20 °C1.56
22:15:001.20 °C1004.40 hPa93.00 %0.20 °C1.56
22:00:001.20 °C1004.60 hPa93.00 %0.20 °C1.56
21:45:001.30 °C1004.30 hPa93.00 %0.30 °C1.56
21:30:001.30 °C1004.20 hPa93.00 %0.30 °C1.56
21:15:001.30 °C1004.30 hPa92.00 %0.10 °C1.56
21:00:001.50 °C1004.20 hPa93.00 %6.48 km/hWSW-0.50 °C0.50 °C1.56
20:45:001.50 °C1004.30 hPa92.00 %0.30 °C1.56
20:30:001.40 °C1004.30 hPa92.00 %0.20 °C1.56
20:15:001.40 °C1004.00 hPa92.00 %0.20 °C1.56
20:00:001.40 °C1003.90 hPa92.00 %0.20 °C1.56
19:45:001.40 °C1003.80 hPa92.00 %0.20 °C1.56
19:30:001.50 °C1003.70 hPa92.00 %0.30 °C1.56
19:15:001.50 °C1003.60 hPa92.00 %0.30 °C1.56
19:00:001.60 °C1003.60 hPa91.00 %0.30 °C1.56
18:45:001.60 °C1003.60 hPa91.00 %4.32 km/hW1.60 °C0.30 °C1.56
18:30:001.60 °C1003.50 hPa90.00 %9.72 km/hSW-1.30 °C0.10 °C1.56
18:15:001.80 °C1003.20 hPa90.00 %0.30 °C1.56
18:00:001.50 °C1002.80 hPa90.00 %6.48 km/hWSW-0.50 °C0.00 °C1.56
17:45:001.40 °C1002.90 hPa89.00 %-0.20 °C1.04
17:30:001.80 °C1002.70 hPa88.00 %0.00 °C1.04
17:15:002.40 °C1002.40 hPa87.00 %0.50 °C1.04
17:00:002.70 °C1002.20 hPa86.00 %0.60 °C1.04
16:45:003.40 °C1002.50 hPa86.00 %10.08 km/hW0.70 °C1.30 °C1.04
16:30:003.60 °C1002.50 hPa85.00 %1.30 °C0.52
16:15:004.20 °C1002.60 hPa84.00 %1.70 °C0.52
16:00:004.50 °C1002.60 hPa83.00 %1.90 °C0.52
15:45:004.90 °C1002.50 hPa82.00 %2.10 °C0.52
15:30:005.50 °C1002.50 hPa82.00 %6.84 km/hNW4.00 °C2.70 °C0.52
15:15:005.50 °C1002.50 hPa83.00 %2.80 °C0.52
15:00:005.90 °C1002.50 hPa83.00 %3.20 °C0.52
14:45:006.30 °C1002.50 hPa83.00 %3.60 °C0.52
14:30:006.20 °C1002.60 hPa85.00 %5.40 km/hW5.30 °C3.90 °C0.52
14:15:005.50 °C1002.70 hPa86.00 %3.30 °C0.52
14:00:005.30 °C1003.00 hPa86.00 %3.20 °C0.52
13:45:005.00 °C1003.10 hPa86.00 %2.90 °C0.52
13:30:005.20 °C1003.10 hPa87.00 %3.20 °C0.52
13:15:005.00 °C1003.40 hPa87.00 %3.00 °C0.52
13:00:004.60 °C1003.30 hPa88.00 %2.80 °C0.52
12:45:004.40 °C1003.50 hPa88.00 %2.60 °C0.52
12:30:004.40 °C1003.40 hPa88.00 %2.60 °C0.52
12:15:005.50 °C1003.50 hPa87.00 %3.50 °C0.52
12:00:006.50 °C1003.40 hPa90.00 %5.00 °C0.52
11:45:005.90 °C1003.50 hPa91.00 %4.50 °C0.52
11:30:005.50 °C1003.60 hPa93.00 %4.50 °C0.52
11:15:004.50 °C1003.70 hPa93.00 %4.68 km/hWSW4.50 °C3.50 °C0.52
11:00:004.10 °C1003.90 hPa93.00 %3.10 °C0.52
10:45:003.90 °C1003.80 hPa93.00 %2.90 °C0.52
10:30:004.10 °C1004.10 hPa93.00 %3.10 °C0.52
10:15:004.70 °C1003.90 hPa94.00 %3.80 °C0.52
10:00:004.80 °C1003.80 hPa94.00 %3.90 °C0.52
09:45:004.90 °C1003.70 hPa94.00 %4.00 °C0.52
09:30:005.10 °C1003.80 hPa95.00 %4.40 °C0.52
09:15:005.20 °C1004.00 hPa96.00 %4.60 °C0.52
09:00:004.40 °C1003.80 hPa96.00 %3.80 °C0.52
08:45:003.30 °C1003.80 hPa96.00 %2.70 °C0.52
08:30:002.30 °C1003.80 hPa95.00 %1.60 °C0.52
08:15:001.80 °C1003.80 hPa95.00 %1.10 °C0.52
08:00:001.30 °C1004.00 hPa95.00 %0.60 °C0.52
07:45:000.90 °C1004.00 hPa95.00 %0.20 °C0.52
07:30:001.00 °C1003.90 hPa95.00 %0.30 °C0.52
07:15:001.30 °C1004.20 hPa95.00 %0.60 °C0.52
07:00:001.30 °C1004.10 hPa95.00 %0.60 °C0.52
06:45:001.30 °C1004.00 hPa95.00 %0.60 °C0.52
06:30:001.30 °C1004.00 hPa95.00 %0.60 °C0.52
06:15:001.30 °C1003.70 hPa95.00 %0.60 °C0.52
06:00:001.30 °C1003.50 hPa95.00 %0.60 °C0.52
05:45:001.20 °C1003.50 hPa95.00 %0.50 °C0.52
05:30:001.10 °C1003.50 hPa95.00 %0.40 °C0.52
05:15:001.00 °C1003.50 hPa95.00 %0.30 °C0.52
05:00:000.90 °C1003.70 hPa95.00 %0.20 °C0.52
04:45:000.90 °C1003.80 hPa95.00 %0.20 °C0.52
04:30:000.80 °C1003.80 hPa95.00 %0.10 °C0.52
04:15:000.80 °C1004.00 hPa95.00 %0.10 °C0.52
04:00:000.70 °C1003.90 hPa94.00 %-0.20 °C0.52
03:45:000.80 °C1004.00 hPa95.00 %0.10 °C0.52
03:30:000.90 °C1004.00 hPa95.00 %0.20 °C 
03:15:000.90 °C1004.30 hPa95.00 %0.20 °C 
03:00:001.10 °C1004.30 hPa95.00 %0.40 °C 
02:45:001.20 °C1004.40 hPa95.00 %0.50 °C 
02:30:001.30 °C1004.40 hPa94.00 %0.40 °C 
02:15:001.30 °C1004.40 hPa94.00 %0.40 °C 
02:00:001.40 °C1004.70 hPa94.00 %0.50 °C 
01:45:001.40 °C1004.80 hPa94.00 %0.50 °C 
01:30:001.40 °C1004.80 hPa94.00 %0.50 °C 
01:15:001.30 °C1004.80 hPa94.00 %0.40 °C 
01:00:001.30 °C1004.70 hPa94.00 %0.40 °C 
00:45:001.30 °C1004.80 hPa94.00 %0.40 °C 
00:30:001.30 °C1004.90 hPa94.00 %0.40 °C 
00:15:001.30 °C1005.10 hPa94.00 %0.40 °C 
00:00:001.30 °C1005.10 hPa94.00 %0.40 °C 

Permanenter Link zu dieser Seite: Wetter im Erzgebirge am 23.03.2016
Performance-Info: Die Erstellung der Seite / Statistik(en) / Tabelle(n) erforderte 5 Datenbankserver-Abfrage(n) und dauerte 118 Millisekunden. (Dieser Messwert ist von der Gesamt-Auslastung des Servers abhängig.)
Erzgebirge - Wetter | Erzgebirge - Wetter (Mobilgeräte) | Komplette Klimadatenbank